createdAt,value
2018-10-18T00:00:30.233Z,42.91
2018-10-18T00:02:59.082Z,42.38
2018-10-18T00:05:27.877Z,42.45
2018-10-18T00:07:56.789Z,43.03
2018-10-18T00:10:25.560Z,42.45
2018-10-18T00:12:54.364Z,42.92
2018-10-18T00:15:23.213Z,42.97
2018-10-18T00:17:52.024Z,42.96
2018-10-18T00:20:20.809Z,43.05
2018-10-18T00:22:49.604Z,42.41
2018-10-18T00:25:18.357Z,43.08
2018-10-18T00:27:47.085Z,43.06
2018-10-18T00:30:16.231Z,42.57
2018-10-18T00:32:45.492Z,42.98
2018-10-18T00:35:14.280Z,42.63
2018-10-18T00:37:43.112Z,42.79
2018-10-18T00:40:12.854Z,42.96
2018-10-18T00:42:42.135Z,42.68
2018-10-18T00:45:11.498Z,43.08
2018-10-18T00:47:40.281Z,42.54
2018-10-18T00:50:10.734Z,42.61
2018-10-18T00:52:39.639Z,42.97
2018-10-18T00:55:09.757Z,43.13
2018-10-18T00:57:38.895Z,43.14
2018-10-18T01:00:09.132Z,42.58
2018-10-18T01:02:37.924Z,43.10
2018-10-18T01:05:06.922Z,42.58
2018-10-18T01:07:35.742Z,42.53
2018-10-18T01:10:04.814Z,42.98
2018-10-18T01:12:33.563Z,42.58
2018-10-18T01:15:02.621Z,43.07
2018-10-18T01:17:31.429Z,43.15
2018-10-18T01:20:00.203Z,43.15
2018-10-18T01:22:29.022Z,43.06
2018-10-18T01:24:57.825Z,42.63
2018-10-18T01:27:26.705Z,42.60
2018-10-18T01:29:55.496Z,42.96
2018-10-18T01:32:24.241Z,42.76
2018-10-18T01:34:53.030Z,42.56
2018-10-18T01:37:21.816Z,42.65
2018-10-18T01:39:50.522Z,42.62
2018-10-18T01:42:19.353Z,42.62
2018-10-18T01:44:48.084Z,43.23
2018-10-18T01:47:16.857Z,43.14
2018-10-18T01:49:46.335Z,43.07
2018-10-18T01:52:15.123Z,42.68
2018-10-18T01:54:43.893Z,43.17
2018-10-18T01:57:12.686Z,42.77
2018-10-18T01:59:41.483Z,42.65
2018-10-18T02:02:10.453Z,42.74
2018-10-18T02:04:39.170Z,42.65
2018-10-18T02:07:08.041Z,42.68
2018-10-18T02:09:36.803Z,43.32
2018-10-18T02:12:06.049Z,42.72
2018-10-18T02:14:34.737Z,43.29
2018-10-18T02:17:03.591Z,42.67
2018-10-18T02:19:32.526Z,42.82
2018-10-18T02:22:01.349Z,42.75
2018-10-18T02:24:30.181Z,43.17
2018-10-18T02:26:58.930Z,43.31
2018-10-18T02:29:27.733Z,42.95
2018-10-18T02:31:56.546Z,43.29
2018-10-18T02:34:25.346Z,43.10
2018-10-18T02:36:54.079Z,42.75
2018-10-18T02:39:22.797Z,43.05
2018-10-18T02:41:51.611Z,43.22
2018-10-18T02:44:20.325Z,42.87
2018-10-18T02:46:49.084Z,42.59
2018-10-18T02:49:17.845Z,43.18
2018-10-18T02:51:46.560Z,42.60
2018-10-18T02:54:15.412Z,43.13
2018-10-18T02:56:44.193Z,43.06
2018-10-18T02:59:12.909Z,43.06
2018-10-18T03:01:41.705Z,42.47
2018-10-18T03:04:10.729Z,42.87
2018-10-18T03:06:39.504Z,42.43
2018-10-18T03:09:10.036Z,42.51
2018-10-18T03:11:38.802Z,43.03
2018-10-18T03:14:07.802Z,42.35
2018-10-18T03:16:36.588Z,42.93
2018-10-18T03:19:05.875Z,42.60
2018-10-18T03:21:34.631Z,42.42
2018-10-18T03:24:03.512Z,42.45
2018-10-18T03:26:32.291Z,42.82
2018-10-18T03:29:01.048Z,42.69
2018-10-18T03:31:29.947Z,42.83
2018-10-18T03:33:58.722Z,42.83
2018-10-18T03:36:27.584Z,42.68
2018-10-18T03:38:56.347Z,42.42
2018-10-18T03:41:25.820Z,42.23
2018-10-18T03:43:54.566Z,42.30
2018-10-18T03:46:23.310Z,42.51
2018-10-18T03:48:52.050Z,42.23
2018-10-18T03:51:20.763Z,42.75
2018-10-18T03:53:49.515Z,42.72
2018-10-18T03:56:18.409Z,42.55
2018-10-18T03:58:47.221Z,42.40
2018-10-18T04:01:16.007Z,42.23
2018-10-18T04:03:44.812Z,42.27
2018-10-18T04:06:14.310Z,42.23
2018-10-18T04:08:42.966Z,42.37
2018-10-18T04:11:11.666Z,42.33
2018-10-18T04:13:40.584Z,42.11
2018-10-18T04:16:09.380Z,42.15
2018-10-18T04:18:38.164Z,42.17
2018-10-18T04:21:07.362Z,42.72
2018-10-18T04:23:36.357Z,42.75
2018-10-18T04:26:05.366Z,42.64
2018-10-18T04:28:34.549Z,42.04
2018-10-18T04:31:04.236Z,42.65
2018-10-18T04:33:33.478Z,42.76
2018-10-18T04:36:02.303Z,42.75
2018-10-18T04:38:31.155Z,42.20
2018-10-18T04:40:59.937Z,42.15
2018-10-18T04:43:28.682Z,42.67
2018-10-18T04:45:57.565Z,42.29
2018-10-18T04:48:26.473Z,42.09
2018-10-18T04:50:55.203Z,42.12
2018-10-18T04:53:23.955Z,42.09
2018-10-18T04:55:52.676Z,42.64
2018-10-18T04:58:21.496Z,42.11
2018-10-18T05:00:50.244Z,42.16
2018-10-18T05:03:19.104Z,42.52
2018-10-18T05:05:52.823Z,42.44
2018-10-18T05:08:22.894Z,42.53
2018-10-18T05:10:51.631Z,42.62
2018-10-18T05:13:21.270Z,42.68
2018-10-18T05:15:49.952Z,42.94
2018-10-18T05:18:18.872Z,43.53
2018-10-18T05:20:47.942Z,43.05
2018-10-18T05:23:16.752Z,43.69
2018-10-18T05:25:46.405Z,43.11
2018-10-18T05:28:15.164Z,43.37
2018-10-18T05:30:43.916Z,43.87
2018-10-18T05:33:13.409Z,43.33
2018-10-18T05:35:42.204Z,43.87
2018-10-18T05:38:11.002Z,43.43
2018-10-18T05:40:39.800Z,43.50
2018-10-18T05:43:08.711Z,43.92
2018-10-18T05:45:37.476Z,44.33
2018-10-18T05:48:06.555Z,44.47
2018-10-18T05:50:35.357Z,44.10
2018-10-18T05:53:04.212Z,44.70
2018-10-18T05:55:32.994Z,44.33
2018-10-18T05:58:02.140Z,44.87
2018-10-18T06:00:30.979Z,44.43
2018-10-18T06:02:59.753Z,44.55
2018-10-18T06:05:28.544Z,44.89
2018-10-18T06:07:57.354Z,44.87
2018-10-18T06:10:37.452Z,45.70
2018-10-18T06:13:06.465Z,45.42
2018-10-18T06:15:35.264Z,45.80
2018-10-18T06:18:04.576Z,45.72
2018-10-18T06:20:33.438Z,45.38
2018-10-18T06:23:02.355Z,45.42
2018-10-18T06:25:31.230Z,45.35
2018-10-18T06:27:59.982Z,45.38
2018-10-18T06:30:28.745Z,45.73
2018-10-18T06:32:57.516Z,46.01
2018-10-18T06:35:26.358Z,45.45
2018-10-18T06:37:55.148Z,46.19
2018-10-18T06:40:23.934Z,45.54
2018-10-18T06:42:52.724Z,45.65
2018-10-18T06:45:21.463Z,45.87
2018-10-18T06:47:50.333Z,46.07
2018-10-18T06:50:20.435Z,46.04
2018-10-18T06:52:50.077Z,45.52
2018-10-18T06:55:18.982Z,45.99
2018-10-18T06:57:47.699Z,45.91
2018-10-18T07:00:18.007Z,45.94
2018-10-18T07:02:46.759Z,45.64
2018-10-18T07:05:15.928Z,45.26
2018-10-18T07:07:45.181Z,45.10
2018-10-18T07:10:14.084Z,45.33
2018-10-18T07:12:43.354Z,45.65
2018-10-18T07:15:13.294Z,45.52
2018-10-18T07:17:42.817Z,45.21
2018-10-18T07:20:13.330Z,45.05
2018-10-18T07:22:42.364Z,45.05
2018-10-18T07:25:12.534Z,45.28
2018-10-18T07:27:42.093Z,45.20
2018-10-18T07:30:12.667Z,45.47
2018-10-18T07:32:41.613Z,45.32
2018-10-18T07:35:11.750Z,45.38
2018-10-18T07:37:40.444Z,44.78
2018-10-18T07:40:12.433Z,45.24
2018-10-18T07:42:41.251Z,45.35
2018-10-18T07:45:11.115Z,45.30
2018-10-18T07:47:40.055Z,45.30
2018-10-18T07:50:09.097Z,44.97
2018-10-18T07:52:38.017Z,45.29
2018-10-18T07:55:08.108Z,44.71
2018-10-18T07:57:37.876Z,45.03
2018-10-18T08:00:08.929Z,44.83
2018-10-18T08:02:37.729Z,45.12
2018-10-18T08:05:07.424Z,45.13
2018-10-18T08:07:36.328Z,44.57
2018-10-18T08:10:06.638Z,44.57
2018-10-18T08:12:35.418Z,45.10
2018-10-18T08:15:04.196Z,44.38
2018-10-18T08:17:33.042Z,44.47
2018-10-18T08:20:01.733Z,44.97
2018-10-18T08:22:30.779Z,44.84
2018-10-18T08:24:59.585Z,44.95
2018-10-18T08:27:28.348Z,44.39
2018-10-18T08:29:57.102Z,44.39
2018-10-18T08:32:26.070Z,44.31
2018-10-18T08:34:54.884Z,44.20
2018-10-18T08:37:23.813Z,44.82
2018-10-18T08:39:52.736Z,44.43
2018-10-18T08:42:21.475Z,44.70
2018-10-18T08:44:50.379Z,44.19
2018-10-18T08:47:19.138Z,44.67
2018-10-18T08:49:48.105Z,44.48
2018-10-18T08:52:17.124Z,44.68
2018-10-18T08:54:45.915Z,44.70
2018-10-18T08:57:14.660Z,44.19
2018-10-18T08:59:43.462Z,44.13
2018-10-18T09:02:12.199Z,44.07
2018-10-18T09:04:41.035Z,44.37
2018-10-18T09:07:10.007Z,44.06
2018-10-18T09:09:38.770Z,44.39
2018-10-18T09:12:07.583Z,44.00
2018-10-18T09:14:36.412Z,43.87
2018-10-18T09:17:05.461Z,43.91
2018-10-18T09:19:34.247Z,44.47
2018-10-18T09:22:03.502Z,43.88
2018-10-18T09:24:32.358Z,44.40
2018-10-18T09:27:01.152Z,44.41
2018-10-18T09:29:29.948Z,44.45
2018-10-18T09:31:58.700Z,44.29
2018-10-18T09:34:27.465Z,43.73
2018-10-18T09:36:56.245Z,43.76
2018-10-18T09:39:25.137Z,43.58
2018-10-18T09:41:53.883Z,43.65
2018-10-18T09:44:22.758Z,43.96
2018-10-18T09:46:51.639Z,43.57
2018-10-18T09:49:20.365Z,44.07
2018-10-18T09:51:49.310Z,43.52
2018-10-18T09:54:18.185Z,44.05
2018-10-18T09:56:46.980Z,43.80
2018-10-18T09:59:15.803Z,43.43
2018-10-18T10:01:48.122Z,43.36
2018-10-18T10:04:17.027Z,43.96
2018-10-18T10:06:45.752Z,43.51
2018-10-18T10:09:14.602Z,43.40
2018-10-18T10:11:43.453Z,43.58
2018-10-18T10:14:12.384Z,43.22
2018-10-18T10:16:41.259Z,43.44
2018-10-18T10:19:10.089Z,43.72
2018-10-18T10:21:38.886Z,43.63
2018-10-18T10:24:07.669Z,43.12
2018-10-18T10:26:36.558Z,43.31
2018-10-18T10:29:05.459Z,43.07
2018-10-18T10:31:34.228Z,43.16
2018-10-18T10:34:03.075Z,43.22
2018-10-18T10:36:31.980Z,43.56
2018-10-18T10:39:00.874Z,43.03
2018-10-18T10:41:29.632Z,43.36
2018-10-18T10:43:58.382Z,43.52
2018-10-18T10:46:27.270Z,42.96
2018-10-18T10:48:56.043Z,43.33
2018-10-18T10:51:24.805Z,43.19
2018-10-18T10:53:53.676Z,42.88
2018-10-18T10:56:22.467Z,42.91
2018-10-18T10:58:51.281Z,43.35
2018-10-18T11:01:22.290Z,42.86
2018-10-18T11:03:52.329Z,42.84
2018-10-18T11:06:21.201Z,42.78
2018-10-18T11:08:49.953Z,43.14
2018-10-18T11:11:19.257Z,43.24
2018-10-18T11:13:48.141Z,42.69
2018-10-18T11:16:16.918Z,43.05
2018-10-18T11:18:45.762Z,43.15
2018-10-18T11:21:15.920Z,42.68
2018-10-18T11:23:44.768Z,42.61
2018-10-18T11:26:13.658Z,42.66
2018-10-18T11:28:42.428Z,43.25
2018-10-18T11:31:11.250Z,43.22
2018-10-18T11:33:40.016Z,43.20
2018-10-18T11:36:08.928Z,42.61
2018-10-18T11:38:37.634Z,42.63
2018-10-18T11:41:06.361Z,42.57
2018-10-18T11:43:35.078Z,43.02
2018-10-18T11:46:04.086Z,42.57
2018-10-18T12:15:49.181Z,43.03
2018-10-18T12:18:46.965Z,42.63
2018-10-18T12:21:44.781Z,43.07
2018-10-18T12:24:43.669Z,42.99
2018-10-18T12:27:41.762Z,42.85
2018-10-18T12:30:40.489Z,42.43
2018-10-18T12:33:39.237Z,42.36
2018-10-18T12:36:38.515Z,42.94
2018-10-18T12:39:36.346Z,42.30
2018-10-18T12:42:34.341Z,42.30
2018-10-18T12:45:32.358Z,42.24
2018-10-18T12:48:31.228Z,42.83
2018-10-18T12:51:30.138Z,42.76
2018-10-18T12:54:28.136Z,42.83
2018-10-18T12:57:26.012Z,42.21
2018-10-18T13:00:24.804Z,42.73
2018-10-18T13:03:22.816Z,42.71
2018-10-18T13:06:20.811Z,42.21
2018-10-18T13:09:18.893Z,42.64
2018-10-18T13:12:16.812Z,42.14
2018-10-18T13:15:14.633Z,42.15
2018-10-18T13:18:12.728Z,42.03
2018-10-18T13:21:10.421Z,42.37
2018-10-18T13:24:08.448Z,42.60
2018-10-18T13:27:06.547Z,42.01
2018-10-18T13:30:04.689Z,42.42
2018-10-18T13:33:02.762Z,42.42
2018-10-18T13:36:01.675Z,41.82
2018-10-18T13:38:59.752Z,42.35
2018-10-18T13:41:57.748Z,42.22
2018-10-18T13:44:55.853Z,41.91
2018-10-18T13:47:53.584Z,42.32
2018-10-18T13:50:51.574Z,42.36
2018-10-18T13:53:52.775Z,41.78
2018-10-18T13:56:50.992Z,42.06
2018-10-18T14:00:00.792Z,41.65
2018-10-18T14:03:00.865Z,42.21
2018-10-18T14:05:58.761Z,41.65
2018-10-18T14:08:56.807Z,41.56
2018-10-18T14:11:55.474Z,42.17
2018-10-18T14:14:53.599Z,41.86
2018-10-18T14:17:51.804Z,41.50
2018-10-18T14:20:49.616Z,41.99
2018-10-18T14:23:48.402Z,41.47
2018-10-18T14:26:47.553Z,41.96
2018-10-18T14:29:45.462Z,41.94
2018-10-18T14:32:44.415Z,41.90
2018-10-18T14:35:44.447Z,41.51
2018-10-18T14:38:42.704Z,41.30
2018-10-18T14:41:43.636Z,41.26
2018-10-18T14:44:42.001Z,41.60
2018-10-18T14:47:42.203Z,41.76
2018-10-18T14:50:45.042Z,41.70
2018-10-18T14:53:44.599Z,41.25
2018-10-18T14:56:42.771Z,41.08
2018-10-18T14:59:44.770Z,41.40
2018-10-18T15:02:43.725Z,41.54
2018-10-18T15:05:42.360Z,41.48
2018-10-18T15:08:41.154Z,40.92
2018-10-18T15:11:39.015Z,41.23
2018-10-18T15:14:36.928Z,41.50
2018-10-18T15:19:35.662Z,40.66
2018-10-18T15:22:04.502Z,41.37
2018-10-18T15:24:33.357Z,41.37
2018-10-18T15:27:02.351Z,41.32
2018-10-18T15:29:31.026Z,40.86
2018-10-18T15:32:00.003Z,41.27
2018-10-18T15:34:28.869Z,40.68
2018-10-18T15:36:57.798Z,40.57
2018-10-18T15:39:26.666Z,41.05
2018-10-18T15:41:55.528Z,41.04
2018-10-18T15:44:24.446Z,40.44
2018-10-18T15:46:54.247Z,40.75
2018-10-18T15:49:23.156Z,40.68
2018-10-18T15:51:52.095Z,40.94
2018-10-18T15:54:22.043Z,40.28
2018-10-18T15:56:51.030Z,40.32
2018-10-18T15:59:20.074Z,40.59
2018-10-18T16:01:49.035Z,40.66
2018-10-18T16:04:18.052Z,40.08
2018-10-18T16:06:47.117Z,40.09
2018-10-18T16:09:16.105Z,40.34
2018-10-18T16:11:44.992Z,40.60
2018-10-18T16:14:14.162Z,40.56
2018-10-18T16:16:43.003Z,40.03
2018-10-18T16:19:11.872Z,40.53
2018-10-18T16:21:41.663Z,40.00
2018-10-18T16:24:10.835Z,40.47
2018-10-18T16:26:39.819Z,39.97
2018-10-18T16:29:09.048Z,40.42
2018-10-18T16:31:37.832Z,39.87
2018-10-18T16:34:06.786Z,40.33
2018-10-18T16:36:35.641Z,39.79
2018-10-18T16:39:06.510Z,40.29
2018-10-18T16:41:35.509Z,40.29
2018-10-18T16:44:04.597Z,39.98
2018-10-18T16:46:33.467Z,40.15
2018-10-18T16:49:02.368Z,39.50
2018-10-18T16:51:31.221Z,39.43
2018-10-18T16:54:00.354Z,39.99
2018-10-18T16:56:29.114Z,39.93
2018-10-18T16:58:58.013Z,39.38
2018-10-18T17:01:27.075Z,39.44
2018-10-18T17:03:55.963Z,39.17
2018-10-18T17:06:24.986Z,39.34
2018-10-18T17:08:53.926Z,39.48
2018-10-18T17:11:22.898Z,39.50
2018-10-18T17:13:51.867Z,39.40
2018-10-18T17:16:20.734Z,39.65
2018-10-18T17:18:49.719Z,39.02
2018-10-18T17:21:18.766Z,39.00
2018-10-18T17:23:47.768Z,39.52
2018-10-18T17:26:16.893Z,38.85
2018-10-18T17:28:45.649Z,38.93
2018-10-18T17:31:14.588Z,39.25
2018-10-18T17:33:43.505Z,39.35
2018-10-18T17:36:12.438Z,38.81
2018-10-18T17:38:41.350Z,38.85
2018-10-18T17:41:10.274Z,39.24
2018-10-18T17:43:39.157Z,38.85
2018-10-18T17:46:08.096Z,39.08
2018-10-18T17:48:37.062Z,38.85
2018-10-18T17:51:06.012Z,39.11
2018-10-18T17:53:34.908Z,38.79
2018-10-18T17:56:04.102Z,38.83
2018-10-18T17:58:32.948Z,39.13
2018-10-18T18:01:01.790Z,39.14
2018-10-18T18:03:30.682Z,39.15
2018-10-18T18:05:59.628Z,39.14
2018-10-18T18:08:28.429Z,39.06
2018-10-18T18:10:57.340Z,38.88
2018-10-18T18:13:26.137Z,38.56
2018-10-18T18:15:55.025Z,38.43
2018-10-18T18:18:23.880Z,38.64
2018-10-18T18:20:52.700Z,38.76
2018-10-18T18:23:21.534Z,38.88
2018-10-18T18:25:50.421Z,38.23
2018-10-18T18:28:19.196Z,38.89
2018-10-18T18:30:48.154Z,38.29
2018-10-18T18:33:17.043Z,38.23
2018-10-18T18:35:45.851Z,38.32
2018-10-18T18:38:14.761Z,38.19
2018-10-18T18:40:43.609Z,38.65
2018-10-18T18:43:12.488Z,38.11
2018-10-18T18:45:41.306Z,38.69
2018-10-18T18:48:10.121Z,38.74
2018-10-18T18:50:39.090Z,38.12
2018-10-18T18:53:07.950Z,38.73
2018-10-18T18:55:36.812Z,38.08
2018-10-18T18:58:05.772Z,38.19
2018-10-18T19:00:34.944Z,38.21
2018-10-18T19:03:03.833Z,38.36
2018-10-18T19:05:32.715Z,38.57
2018-10-18T19:08:01.837Z,37.97
2018-10-18T19:10:31.132Z,38.57
2018-10-18T19:12:59.952Z,38.15
2018-10-18T19:15:28.905Z,37.96
2018-10-18T19:17:57.724Z,38.14
2018-10-18T19:20:26.603Z,38.39
2018-10-18T19:22:55.532Z,38.14
2018-10-18T19:25:24.617Z,38.31
2018-10-18T19:27:53.414Z,38.26
2018-10-18T19:30:22.385Z,38.29
2018-10-18T19:32:51.262Z,37.78
2018-10-18T19:35:20.069Z,37.46
2018-10-18T19:37:48.930Z,38.15
2018-10-18T19:40:17.846Z,38.15
2018-10-18T19:42:46.824Z,37.82
2018-10-18T19:45:15.672Z,38.24
2018-10-18T19:47:44.559Z,38.03
2018-10-18T19:50:13.481Z,38.05
2018-10-18T19:52:42.480Z,38.03
2018-10-18T19:55:11.659Z,37.49
2018-10-18T19:57:40.945Z,38.04
2018-10-18T20:00:10.791Z,37.65
2018-10-18T20:02:39.700Z,37.89
2018-10-18T20:05:09.102Z,38.14
2018-10-18T20:07:38.389Z,38.20
2018-10-18T20:10:08.206Z,38.13
2018-10-18T20:12:37.082Z,38.12
2018-10-18T20:15:06.723Z,38.33
2018-10-18T20:17:35.653Z,38.27
2018-10-18T20:20:05.079Z,38.56
2018-10-18T20:22:34.007Z,38.19
2018-10-18T20:25:03.312Z,38.74
2018-10-18T20:27:32.247Z,38.71
2018-10-18T20:30:01.387Z,38.13
2018-10-18T20:32:30.710Z,38.78
2018-10-18T20:34:59.784Z,38.24
2018-10-18T20:37:29.205Z,38.15
2018-10-18T20:39:58.656Z,38.74
2018-10-18T20:42:27.572Z,38.13
2018-10-18T20:44:56.788Z,38.74
2018-10-18T20:47:26.434Z,38.22
2018-10-18T20:49:55.343Z,38.09
2018-10-18T20:52:24.254Z,38.66
2018-10-18T20:54:53.317Z,38.66
2018-10-18T20:57:22.403Z,38.56
2018-10-18T20:59:52.181Z,38.02
2018-10-18T21:02:21.029Z,38.62
2018-10-18T21:04:49.930Z,38.01
2018-10-18T21:07:19.468Z,38.08
2018-10-18T21:09:48.437Z,38.61
2018-10-18T21:12:17.751Z,38.76
2018-10-18T21:14:46.632Z,38.20
2018-10-18T21:17:15.650Z,38.13
2018-10-18T21:19:44.771Z,38.45
2018-10-18T21:22:13.943Z,38.31
2018-10-18T21:24:43.654Z,37.81
2018-10-18T21:27:13.247Z,37.78
2018-10-18T21:29:42.190Z,37.89
2018-10-18T21:32:11.109Z,37.51
2018-10-18T21:34:39.963Z,37.52
2018-10-18T21:37:08.764Z,37.94
2018-10-18T21:39:37.654Z,37.41
2018-10-18T21:42:06.522Z,37.68
2018-10-18T21:44:36.632Z,37.43
2018-10-18T21:47:06.018Z,37.19
2018-10-18T21:49:35.160Z,37.10
2018-10-18T21:52:04.276Z,37.59
2018-10-18T21:54:33.763Z,36.95
2018-10-18T21:57:03.567Z,37.52
2018-10-18T21:59:32.774Z,36.98
2018-10-18T22:02:01.608Z,37.51
2018-10-18T22:04:30.761Z,36.80
2018-10-18T22:07:00.855Z,37.31
2018-10-18T22:09:29.858Z,36.83
2018-10-18T22:11:59.141Z,37.03
2018-10-18T22:14:28.360Z,36.72
2018-10-18T22:16:57.647Z,36.73
2018-10-18T22:19:26.449Z,37.06
2018-10-18T22:21:55.312Z,37.04
2018-10-18T22:24:24.146Z,36.54
2018-10-18T22:26:52.991Z,36.48
2018-10-18T22:29:21.781Z,36.55
2018-10-18T22:36:46.213Z,36.38
2018-10-18T22:39:15.151Z,36.44
2018-10-18T22:41:43.921Z,36.94
2018-10-18T22:44:12.818Z,36.68
2018-10-18T22:46:41.594Z,36.49
2018-10-18T22:49:10.358Z,36.43
2018-10-18T22:51:39.239Z,36.30
2018-10-18T22:54:08.072Z,36.74
2018-10-18T22:56:36.965Z,36.95
2018-10-18T22:59:05.830Z,36.80
2018-10-18T23:01:34.618Z,36.10
2018-10-18T23:04:03.406Z,36.34
2018-10-18T23:06:32.211Z,36.73
2018-10-18T23:09:00.983Z,36.12
2018-10-18T23:11:29.728Z,36.00
2018-10-18T23:13:58.514Z,36.62
2018-10-18T23:16:27.385Z,35.80
2018-10-18T23:18:56.463Z,36.04
2018-10-18T23:21:25.568Z,35.97
2018-10-18T23:23:55.057Z,36.14
2018-10-18T23:26:23.822Z,35.96
2018-10-18T23:28:52.637Z,35.94
2018-10-18T23:31:21.403Z,36.47
2018-10-18T23:33:50.179Z,35.80
2018-10-18T23:36:18.940Z,35.90
2018-10-18T23:38:47.712Z,35.83
2018-10-18T23:41:16.611Z,36.21
2018-10-18T23:43:45.385Z,36.29
2018-10-18T23:46:14.142Z,35.84
2018-10-18T23:48:42.987Z,35.83
2018-10-18T23:51:11.996Z,36.30
2018-10-18T23:53:40.938Z,35.65
2018-10-18T23:56:09.772Z,36.11
2018-10-18T23:58:38.573Z,35.66
